Peace Dale, Rhode Island
Current Conditions -  °F | °C
As of 7:53 AM on Monday 20 Oct 2014 (Local Time) from KUUU Reporting Station
Clear Clear  
Wind Chill: 39°   Ceiling: Unl
Heat Index: 42°   Visibility: 10mi
Dew Point: 29°   Wind: 5mph
Humidity: 60%   Direction: NA
Pressure: 30.07"   Gusts: NA
Location:  41.45°N, 71.5°W
Report Text: KUUU 201153Z AUTO VRB04KT 10SM CLR 06/M02 A3007 RMK AO2 SLP183 T00561017 10056 20039 53014
Loading
Personal Weather Stations






























Interactive Weather Map
Tropical Storm Tracking
New forecast layout! Learn more

10-Day Weather Forecast

Advertisements
Track Severe Weather on mobile